メインページ
METAR-TAF:

METAR-TAF

空港 :

北京, 中華人民共和国

北京首都国際空港

緯度: 39-56N, 経度: 116-17E, 海抜: 55m

現時点の気象観測

当レポートは31分前の20:30(UTC)に作成
東/北東の風 4kt
気温 9°C
湿度 71%
気圧 1020 hPa
視程: 6000m

METAR: ZBAA 292030Z 06002MPS 6000 NSC 09/04 Q1020 NOSIG

時間: 05:01 (21:01 UTC)

予報

当レポートは5時間41分前の15:20(UTC)に作成
予報は29日の 18時(UTC)から 30日の 18時(UTC)まで有効
北東の風 8kt
視程: 4000m
煙霧

TAF: ZBAA 291520Z 2918/3018 05004MPS 4000 HZ NSC TX17/3007Z TN06/2921Z

4,000以上の空港の気象観測と天気予報(METAR報とTAF報)

利用可能な観測所は地図上に黄色い丸と赤い丸で示す。

丸の上にカーソルを重ねると観測所名を参照できる。

次にクリックすると気象観測と天気予報を参照できる。

マップの切り替え:黒色「×」印の緑ボタンをクリックして拡大、「-」印の緑ボタンをクリックして縮小、緑色の三角印をクリックして隣りの地図に切り替え


METAR-TAF: